Bellatrix — XUAB4 — position and weather

sailwx.info

Track history (hours):
 
Tides and Currents Weather Stations Pressure Air Temp Water Temp Dewpoint Dewpoint Depression Visibility Wind Speed Wind Dir Waves Ship Positions

Bellatrix

Last reported at 2015-Apr-14 11:26 UTC. Time now 2015-Apr-19 19:11 UTC.
Position N 44°40' E 035°20'.

Length 114 m; draft 2.2 m.

Type: Cargo ship. MMSI: 515288000.

Date/timePositionNaut miles runAvg speedWind from/ knotsBaromVisibWave heightAir tempDewpointWater temp
2015-Apr-14 11:26N 44°40' E 035°20'7 7.6
2015-Apr-14 10:28N 44°39' E 035°10'7 7.7
2015-Apr-14 09:34N 44°36' E 035°01'8 7.8
2015-Apr-14 08:33N 44°32' E 034°52'8 8.0
2015-Apr-14 07:34N 44°27' E 034°42'8 7.8
2015-Apr-14 06:33N 44°23' E 034°33'8 7.7
2015-Apr-14 05:34N 44°19' E 034°24'7 7.3
2015-Apr-14 04:34N 44°16' E 034°15'8 7.1
2015-Apr-14 03:27N 44°12' E 034°05'8 6.9
2015-Apr-14 02:15N 44°07' E 033°55'254 8.0
2015-Apr-12 18:27N 41°17' E 029°39'9 9.7
2015-Apr-12 17:34N 41°16' E 029°27'10 9.8
2015-Apr-12 16:33N 41°15' E 029°14'24 0.8
2015-Apr-11 09:10N 40°52' E 029°12'0 0.1
2015-Apr-11 08:22N 40°52' E 029°12'0 0.1
2015-Apr-11 07:11N 40°52' E 029°12'0 0.0
2015-Apr-11 06:13N 40°52' E 029°12'0 0.0
2015-Apr-11 05:32N 40°52' E 029°12'0 0.0
2015-Apr-11 03:33N 40°52' E 029°12'0 0.1
2015-Apr-11 02:19N 40°52' E 029°12'0 0.0
2015-Apr-11 01:13N 40°52' E 029°12'0 0.0
2015-Apr-11 00:20N 40°52' E 029°12'0 0.0
2015-Apr-10 22:04N 40°52' E 029°12'0 0.0
2015-Apr-10 20:11N 40°52' E 029°12'0 0.0
2015-Apr-10 19:19N 40°52' E 029°12'0 0.1
2015-Apr-10 18:33N 40°52' E 029°12'7 5.6
2015-Apr-10 17:16N 40°46' E 029°18'8 9.2
2015-Apr-10 16:23N 40°45' E 029°29'  
2015-Apr-07 20:29N 40°45' E 029°30'7 8.0
2015-Apr-07 19:33N 40°44' E 029°21'8 8.1
2015-Apr-07 18:32N 40°47' E 029°11'9 8.1
2015-Apr-07 17:27N 40°50' E 028°60'8 7.4
2015-Apr-07 16:22N 40°58' E 028°59'  
Track history (hours):
 
Tides and Currents Weather Stations Pressure Air Temp Water Temp Dewpoint Dewpoint Depression Visibility Wind Speed Wind Dir Waves Ship Positions

Bellatrix

Last reported at 2015-Apr-14 11:26 UTC. Time now 2015-Apr-19 19:11 UTC.
Position N 44°40' E 035°20'.

Length 114 m; draft 2.2 m.

Type: Cargo ship. MMSI: 515288000.

Date/timePositionNaut miles runAvg speedWind from/ knotsBaromVisibWave heightAir tempDewpointWater temp
2015-Apr-14 11:26N 44°40' E 035°20'7 7.6
2015-Apr-14 10:28N 44°39' E 035°10'7 7.7
2015-Apr-14 09:34N 44°36' E 035°01'8 7.8
2015-Apr-14 08:33N 44°32' E 034°52'8 8.0
2015-Apr-14 07:34N 44°27' E 034°42'8 7.8
2015-Apr-14 06:33N 44°23' E 034°33'8 7.7
2015-Apr-14 05:34N 44°19' E 034°24'7 7.3
2015-Apr-14 04:34N 44°16' E 034°15'8 7.1
2015-Apr-14 03:27N 44°12' E 034°05'8 6.9
2015-Apr-14 02:15N 44°07' E 033°55'254 8.0
2015-Apr-12 18:27N 41°17' E 029°39'9 9.7
2015-Apr-12 17:34N 41°16' E 029°27'10 9.8
2015-Apr-12 16:33N 41°15' E 029°14'24 0.8
2015-Apr-11 09:10N 40°52' E 029°12'0 0.1
2015-Apr-11 08:22N 40°52' E 029°12'0 0.1
2015-Apr-11 07:11N 40°52' E 029°12'0 0.0
2015-Apr-11 06:13N 40°52' E 029°12'0 0.0
2015-Apr-11 05:32N 40°52' E 029°12'0 0.0
2015-Apr-11 03:33N 40°52' E 029°12'0 0.1
2015-Apr-11 02:19N 40°52' E 029°12'0 0.0
2015-Apr-11 01:13N 40°52' E 029°12'0 0.0
2015-Apr-11 00:20N 40°52' E 029°12'0 0.0
2015-Apr-10 22:04N 40°52' E 029°12'0 0.0
2015-Apr-10 20:11N 40°52' E 029°12'0 0.0
2015-Apr-10 19:19N 40°52' E 029°12'0 0.1
2015-Apr-10 18:33N 40°52' E 029°12'7 5.6
2015-Apr-10 17:16N 40°46' E 029°18'8 9.2
2015-Apr-10 16:23N 40°45' E 029°29'  
2015-Apr-07 20:29N 40°45' E 029°30'7 8.0
2015-Apr-07 19:33N 40°44' E 029°21'8 8.1
2015-Apr-07 18:32N 40°47' E 029°11'9 8.1
2015-Apr-07 17:27N 40°50' E 028°60'8 7.4
2015-Apr-07 16:22N 40°58' E 028°59'  

Dump ship's entire track history